YBOG weather

Boggabri Airport
New South Wales, Australia

Public forecast

Using degrees Celsius for public forecast. Weather courtesy of forecast.io.

METAR (pilot weather report)

Closest report is Narrabri Airport, 26.5 nm (49.1 km) NNW. Retrieved 2019/04/26 03:00 UTC (23 minutes ago):

YNBR 260300Z AUTO 27005KT 220V310 9999 // SCT068 29/10 Q1015

TAF (pilot weather forecast)

Forecast is more than 12 hours old.

Closest forecast is Tamworth Airport, 46.6 nm (86.3 km) ESE. Retrieved 2019/04/25 00:36 UTC (1 day ago):

TAF YSTW 252259Z 2600/2614 30008KT CAVOK FM260300 26012KT CAVOK FM261200 20008KT CAVOK